sensor_id;sensor_type;location;lat;lon;timestamp;P1;durP1;ratioP1;P2;durP2;ratioP2
1811;SDS011;904;47.814;11.134;2023-05-07T00:02:19;9.57;;;7.27;;
1811;SDS011;904;47.814;11.134;2023-05-07T00:04:47;8.50;;;7.70;;
1811;SDS011;904;47.814;11.134;2023-05-07T00:07:18;9.63;;;6.97;;
1811;SDS011;904;47.814;11.134;2023-05-07T00:09:45;13.33;;;8.23;;
1811;SDS011;904;47.814;11.134;2023-05-07T00:12:12;7.93;;;7.13;;
1811;SDS011;904;47.814;11.134;2023-05-07T00:14:39;9.70;;;6.83;;
1811;SDS011;904;47.814;11.134;2023-05-07T00:17:06;8.17;;;6.80;;
1811;SDS011;904;47.814;11.134;2023-05-07T00:19:35;8.60;;;6.80;;
1811;SDS011;904;47.814;11.134;2023-05-07T00:22:02;9.70;;;6.70;;
1811;SDS011;904;47.814;11.134;2023-05-07T00:24:29;9.50;;;7.73;;
1811;SDS011;904;47.814;11.134;2023-05-07T00:26:56;9.20;;;6.90;;
1811;SDS011;904;47.814;11.134;2023-05-07T00:29:25;10.53;;;7.73;;
1811;SDS011;904;47.814;11.134;2023-05-07T00:31:54;12.57;;;9.20;;
1811;SDS011;904;47.814;11.134;2023-05-07T00:34:21;8.53;;;7.63;;
1811;SDS011;904;47.814;11.134;2023-05-07T00:36:54;8.47;;;7.63;;
1811;SDS011;904;47.814;11.134;2023-05-07T00:39:21;10.20;;;7.30;;
1811;SDS011;904;47.814;11.134;2023-05-07T00:41:50;9.73;;;7.17;;
1811;SDS011;904;47.814;11.134;2023-05-07T00:44:18;9.67;;;6.93;;
1811;SDS011;904;47.814;11.134;2023-05-07T00:46:45;8.40;;;7.03;;
1811;SDS011;904;47.814;11.134;2023-05-07T00:49:14;9.60;;;6.93;;
1811;SDS011;904;47.814;11.134;2023-05-07T00:51:44;7.17;;;5.77;;
1811;SDS011;904;47.814;11.134;2023-05-07T00:54:13;7.77;;;5.53;;
1811;SDS011;904;47.814;11.134;2023-05-07T00:56:40;7.13;;;6.30;;
1811;SDS011;904;47.814;11.134;2023-05-07T00:59:09;8.53;;;6.90;;
1811;SDS011;904;47.814;11.134;2023-05-07T01:01:42;7.23;;;6.40;;
1811;SDS011;904;47.814;11.134;2023-05-07T01:04:09;7.67;;;5.33;;
1811;SDS011;904;47.814;11.134;2023-05-07T01:06:36;6.63;;;5.93;;
1811;SDS011;904;47.814;11.134;2023-05-07T01:09:03;6.30;;;5.43;;
1811;SDS011;904;47.814;11.134;2023-05-07T01:11:32;8.20;;;6.30;;
1811;SDS011;904;47.814;11.134;2023-05-07T01:13:59;6.80;;;6.10;;
1811;SDS011;904;47.814;11.134;2023-05-07T01:16:26;7.23;;;6.53;;
1811;SDS011;904;47.814;11.134;2023-05-07T01:18:53;6.50;;;5.90;;
1811;SDS011;904;47.814;11.134;2023-05-07T01:21:24;6.33;;;5.73;;
1811;SDS011;904;47.814;11.134;2023-05-07T01:23:54;8.57;;;7.77;;
1811;SDS011;904;47.814;11.134;2023-05-07T01:26:22;9.00;;;6.90;;
1811;SDS011;904;47.814;11.134;2023-05-07T01:28:49;7.70;;;6.40;;
1811;SDS011;904;47.814;11.134;2023-05-07T01:31:18;7.27;;;6.57;;
1811;SDS011;904;47.814;11.134;2023-05-07T01:33:46;6.93;;;6.30;;
1811;SDS011;904;47.814;11.134;2023-05-07T01:36:16;7.00;;;6.30;;
1811;SDS011;904;47.814;11.134;2023-05-07T01:38:45;6.50;;;5.70;;
1811;SDS011;904;47.814;11.134;2023-05-07T01:41:13;6.47;;;5.50;;
1811;SDS011;904;47.814;11.134;2023-05-07T01:43:40;8.13;;;5.93;;
1811;SDS011;904;47.814;11.134;2023-05-07T01:46:08;8.43;;;5.90;;
1811;SDS011;904;47.814;11.134;2023-05-07T01:48:36;6.40;;;5.13;;
1811;SDS011;904;47.814;11.134;2023-05-07T01:51:04;5.67;;;5.10;;
1811;SDS011;904;47.814;11.134;2023-05-07T01:53:35;7.50;;;6.20;;
1811;SDS011;904;47.814;11.134;2023-05-07T01:56:04;7.23;;;4.97;;
1811;SDS011;904;47.814;11.134;2023-05-07T01:58:33;7.03;;;6.33;;
1811;SDS011;904;47.814;11.134;2023-05-07T02:01:00;9.00;;;5.80;;
1811;SDS011;904;47.814;11.134;2023-05-07T02:03:27;6.70;;;6.00;;
1811;SDS011;904;47.814;11.134;2023-05-07T02:05:54;10.60;;;6.07;;
1811;SDS011;904;47.814;11.134;2023-05-07T02:08:26;8.43;;;5.87;;
1811;SDS011;904;47.814;11.134;2023-05-07T02:10:53;6.97;;;5.43;;
1811;SDS011;904;47.814;11.134;2023-05-07T02:13:20;8.60;;;5.97;;
1811;SDS011;904;47.814;11.134;2023-05-07T02:15:51;6.00;;;5.40;;
1811;SDS011;904;47.814;11.134;2023-05-07T02:18:18;6.17;;;5.50;;
1811;SDS011;904;47.814;11.134;2023-05-07T02:20:45;6.50;;;5.67;;
1811;SDS011;904;47.814;11.134;2023-05-07T02:23:12;6.43;;;5.07;;
1811;SDS011;904;47.814;11.134;2023-05-07T02:25:39;6.00;;;5.23;;
1811;SDS011;904;47.814;11.134;2023-05-07T02:28:11;5.97;;;4.90;;
1811;SDS011;904;47.814;11.134;2023-05-07T02:30:38;8.27;;;5.73;;
1811;SDS011;904;47.814;11.134;2023-05-07T02:33:10;7.50;;;5.90;;
1811;SDS011;904;47.814;11.134;2023-05-07T02:35:39;6.63;;;5.80;;
1811;SDS011;904;47.814;11.134;2023-05-07T02:38:07;9.33;;;6.60;;
1811;SDS011;904;47.814;11.134;2023-05-07T02:40:35;7.20;;;6.40;;
1811;SDS011;904;47.814;11.134;2023-05-07T02:43:04;9.40;;;6.27;;
1811;SDS011;904;47.814;11.134;2023-05-07T02:45:31;10.27;;;6.97;;
1811;SDS011;904;47.814;11.134;2023-05-07T02:47:58;7.68;;;6.55;;
1811;SDS011;904;47.814;11.134;2023-05-07T02:50:27;7.70;;;6.33;;
1811;SDS011;904;47.814;11.134;2023-05-07T02:52:55;6.40;;;5.77;;
1811;SDS011;904;47.814;11.134;2023-05-07T02:55:22;7.13;;;5.67;;
1811;SDS011;904;47.814;11.134;2023-05-07T02:57:49;7.73;;;6.97;;
1811;SDS011;904;47.814;11.134;2023-05-07T03:00:17;7.50;;;6.70;;
1811;SDS011;904;47.814;11.134;2023-05-07T03:02:45;7.20;;;6.50;;
1811;SDS011;904;47.814;11.134;2023-05-07T03:05:12;5.93;;;5.13;;
1811;SDS011;904;47.814;11.134;2023-05-07T03:07:46;5.37;;;4.87;;
1811;SDS011;904;47.814;11.134;2023-05-07T03:10:13;6.78;;;5.38;;
1811;SDS011;904;47.814;11.134;2023-05-07T03:12:40;6.75;;;5.53;;
1811;SDS011;904;47.814;11.134;2023-05-07T03:15:07;5.20;;;4.70;;
1811;SDS011;904;47.814;11.134;2023-05-07T03:17:35;6.88;;;5.60;;
1811;SDS011;904;47.814;11.134;2023-05-07T03:20:02;6.90;;;5.40;;
1811;SDS011;904;47.814;11.134;2023-05-07T03:22:30;6.80;;;5.40;;
1811;SDS011;904;47.814;11.134;2023-05-07T03:24:58;6.93;;;5.80;;
1811;SDS011;904;47.814;11.134;2023-05-07T03:27:25;6.35;;;4.90;;
1811;SDS011;904;47.814;11.134;2023-05-07T03:29:52;6.30;;;4.83;;
1811;SDS011;904;47.814;11.134;2023-05-07T03:32:24;5.70;;;4.40;;
1811;SDS011;904;47.814;11.134;2023-05-07T03:34:53;6.67;;;5.37;;
1811;SDS011;904;47.814;11.134;2023-05-07T03:37:20;4.72;;;4.22;;
1811;SDS011;904;47.814;11.134;2023-05-07T03:39:49;5.30;;;4.23;;
1811;SDS011;904;47.814;11.134;2023-05-07T03:42:18;5.25;;;4.75;;
1811;SDS011;904;47.814;11.134;2023-05-07T03:44:45;4.80;;;4.15;;
1811;SDS011;904;47.814;11.134;2023-05-07T03:47:12;5.78;;;4.68;;
1811;SDS011;904;47.814;11.134;2023-05-07T03:49:41;6.65;;;5.15;;
1811;SDS011;904;47.814;11.134;2023-05-07T03:52:07;6.30;;;5.05;;
1811;SDS011;904;47.814;11.134;2023-05-07T03:54:36;6.90;;;3.25;;
1811;SDS011;904;47.814;11.134;2023-05-07T03:57:03;3.38;;;2.50;;
1811;SDS011;904;47.814;11.134;2023-05-07T03:59:36;3.22;;;2.75;;
1811;SDS011;904;47.814;11.134;2023-05-07T04:02:03;4.75;;;3.58;;
1811;SDS011;904;47.814;11.134;2023-05-07T04:04:32;4.10;;;3.40;;
1811;SDS011;904;47.814;11.134;2023-05-07T04:06:59;5.85;;;5.03;;
1811;SDS011;904;47.814;11.134;2023-05-07T04:09:26;5.00;;;4.50;;
1811;SDS011;904;47.814;11.134;2023-05-07T04:11:55;13.45;;;5.43;;
1811;SDS011;904;47.814;11.134;2023-05-07T04:14:22;5.22;;;4.45;;
1811;SDS011;904;47.814;11.134;2023-05-07T04:16:51;6.07;;;4.50;;
1811;SDS011;904;47.814;11.134;2023-05-07T04:19:20;5.72;;;4.03;;
1811;SDS011;904;47.814;11.134;2023-05-07T04:21:47;5.47;;;4.85;;
1811;SDS011;904;47.814;11.134;2023-05-07T04:24:14;5.10;;;4.60;;
1811;SDS011;904;47.814;11.134;2023-05-07T04:26:45;6.32;;;5.32;;
1811;SDS011;904;47.814;11.134;2023-05-07T04:29:12;8.00;;;6.32;;
1811;SDS011;904;47.814;11.134;2023-05-07T04:31:41;7.55;;;5.53;;
1811;SDS011;904;47.814;11.134;2023-05-07T04:34:10;7.50;;;5.75;;
1811;SDS011;904;47.814;11.134;2023-05-07T04:36:38;6.25;;;5.65;;
1811;SDS011;904;47.814;11.134;2023-05-07T04:39:08;6.47;;;5.85;;
1811;SDS011;904;47.814;11.134;2023-05-07T04:41:35;7.53;;;5.05;;
1811;SDS011;904;47.814;11.134;2023-05-07T04:44:05;5.88;;;5.00;;
1811;SDS011;904;47.814;11.134;2023-05-07T04:46:32;5.75;;;5.07;;
1811;SDS011;904;47.814;11.134;2023-05-07T04:48:59;8.00;;;5.05;;
1811;SDS011;904;47.814;11.134;2023-05-07T04:51:27;8.52;;;6.00;;
1811;SDS011;904;47.814;11.134;2023-05-07T04:53:54;6.82;;;5.90;;
1811;SDS011;904;47.814;11.134;2023-05-07T04:56:21;7.57;;;5.63;;
1811;SDS011;904;47.814;11.134;2023-05-07T04:58:48;6.63;;;5.10;;
1811;SDS011;904;47.814;11.134;2023-05-07T05:01:16;11.80;;;5.23;;
1811;SDS011;904;47.814;11.134;2023-05-07T05:03:43;6.03;;;5.43;;
1811;SDS011;904;47.814;11.134;2023-05-07T05:06:10;10.32;;;6.75;;
1811;SDS011;904;47.814;11.134;2023-05-07T05:08:38;7.43;;;6.63;;
1811;SDS011;904;47.814;11.134;2023-05-07T05:11:05;9.40;;;6.13;;
1811;SDS011;904;47.814;11.134;2023-05-07T05:13:32;6.53;;;5.43;;
1811;SDS011;904;47.814;11.134;2023-05-07T05:16:00;7.30;;;6.03;;
1811;SDS011;904;47.814;11.134;2023-05-07T05:18:32;6.70;;;6.00;;
1811;SDS011;904;47.814;11.134;2023-05-07T05:20:59;6.17;;;5.40;;
1811;SDS011;904;47.814;11.134;2023-05-07T05:23:26;6.80;;;5.67;;
1811;SDS011;904;47.814;11.134;2023-05-07T05:25:56;6.10;;;5.50;;
1811;SDS011;904;47.814;11.134;2023-05-07T05:28:24;7.40;;;6.60;;
1811;SDS011;904;47.814;11.134;2023-05-07T05:30:51;9.37;;;7.37;;
1811;SDS011;904;47.814;11.134;2023-05-07T05:33:18;8.43;;;6.30;;
1811;SDS011;904;47.814;11.134;2023-05-07T05:35:45;8.83;;;6.37;;
1811;SDS011;904;47.814;11.134;2023-05-07T05:38:12;6.67;;;5.73;;
1811;SDS011;904;47.814;11.134;2023-05-07T05:40:39;8.70;;;6.70;;
1811;SDS011;904;47.814;11.134;2023-05-07T05:43:07;8.10;;;6.33;;
1811;SDS011;904;47.814;11.134;2023-05-07T05:45:34;6.47;;;5.83;;
1811;SDS011;904;47.814;11.134;2023-05-07T05:48:01;6.13;;;5.53;;
1811;SDS011;904;47.814;11.134;2023-05-07T05:50:29;7.80;;;5.33;;
1811;SDS011;904;47.814;11.134;2023-05-07T05:52:56;8.57;;;5.97;;
1811;SDS011;904;47.814;11.134;2023-05-07T05:55:23;6.73;;;4.83;;
1811;SDS011;904;47.814;11.134;2023-05-07T05:57:50;7.93;;;5.90;;
1811;SDS011;904;47.814;11.134;2023-05-07T06:00:18;8.13;;;5.70;;
1811;SDS011;904;47.814;11.134;2023-05-07T06:02:47;6.70;;;5.80;;
1811;SDS011;904;47.814;11.134;2023-05-07T06:05:14;7.00;;;5.00;;
1811;SDS011;904;47.814;11.134;2023-05-07T06:07:41;5.73;;;4.80;;
1811;SDS011;904;47.814;11.134;2023-05-07T06:10:11;6.87;;;5.37;;
1811;SDS011;904;47.814;11.134;2023-05-07T06:12:38;6.23;;;5.10;;
1811;SDS011;904;47.814;11.134;2023-05-07T06:15:06;6.13;;;4.43;;
1811;SDS011;904;47.814;11.134;2023-05-07T06:17:35;7.03;;;6.33;;
1811;SDS011;904;47.814;11.134;2023-05-07T06:20:02;13.53;;;6.43;;
1811;SDS011;904;47.814;11.134;2023-05-07T06:22:30;6.93;;;5.60;;
1811;SDS011;904;47.814;11.134;2023-05-07T06:24:57;6.07;;;4.20;;
1811;SDS011;904;47.814;11.134;2023-05-07T06:27:24;5.20;;;3.97;;
1811;SDS011;904;47.814;11.134;2023-05-07T06:29:51;4.63;;;3.77;;
1811;SDS011;904;47.814;11.134;2023-05-07T06:32:18;4.40;;;3.70;;
1811;SDS011;904;47.814;11.134;2023-05-07T06:34:47;3.80;;;3.30;;
1811;SDS011;904;47.814;11.134;2023-05-07T06:37:14;4.53;;;3.87;;
1811;SDS011;904;47.814;11.134;2023-05-07T06:39:41;6.40;;;3.27;;
1811;SDS011;904;47.814;11.134;2023-05-07T06:42:08;8.30;;;3.53;;
1811;SDS011;904;47.814;11.134;2023-05-07T06:44:34;3.83;;;3.43;;
1811;SDS011;904;47.814;11.134;2023-05-07T06:47:01;4.10;;;3.70;;
1811;SDS011;904;47.814;11.134;2023-05-07T06:49:30;4.10;;;3.43;;
1811;SDS011;904;47.814;11.134;2023-05-07T06:52:01;6.33;;;3.40;;
1811;SDS011;904;47.814;11.134;2023-05-07T06:54:28;4.33;;;2.97;;
1811;SDS011;904;47.814;11.134;2023-05-07T06:56:55;4.63;;;3.17;;
1811;SDS011;904;47.814;11.134;2023-05-07T06:59:23;4.20;;;3.10;;
1811;SDS011;904;47.814;11.134;2023-05-07T07:01:50;3.77;;;2.53;;
1811;SDS011;904;47.814;11.134;2023-05-07T07:04:17;3.70;;;3.10;;
1811;SDS011;904;47.814;11.134;2023-05-07T07:06:47;3.80;;;2.90;;
1811;SDS011;904;47.814;11.134;2023-05-07T07:09:25;6.10;;;3.50;;
1811;SDS011;904;47.814;11.134;2023-05-07T07:11:52;4.17;;;2.90;;
1811;SDS011;904;47.814;11.134;2023-05-07T07:14:18;4.10;;;3.10;;
1811;SDS011;904;47.814;11.134;2023-05-07T07:16:45;4.50;;;3.20;;
1811;SDS011;904;47.814;11.134;2023-05-07T07:19:12;5.57;;;3.00;;
1811;SDS011;904;47.814;11.134;2023-05-07T07:21:43;3.97;;;2.73;;
1811;SDS011;904;47.814;11.134;2023-05-07T07:24:15;5.80;;;3.33;;
1811;SDS011;904;47.814;11.134;2023-05-07T07:26:47;4.27;;;3.63;;
1811;SDS011;904;47.814;11.134;2023-05-07T07:29:14;6.07;;;3.10;;
1811;SDS011;904;47.814;11.134;2023-05-07T07:31:41;5.50;;;3.23;;
1811;SDS011;904;47.814;11.134;2023-05-07T07:34:08;4.10;;;2.93;;
1811;SDS011;904;47.814;11.134;2023-05-07T07:36:35;4.33;;;3.40;;
1811;SDS011;904;47.814;11.134;2023-05-07T07:39:10;3.70;;;2.77;;
1811;SDS011;904;47.814;11.134;2023-05-07T07:41:37;6.23;;;3.03;;
1811;SDS011;904;47.814;11.134;2023-05-07T07:44:06;4.37;;;3.00;;
1811;SDS011;904;47.814;11.134;2023-05-07T07:46:33;4.00;;;2.70;;
1811;SDS011;904;47.814;11.134;2023-05-07T07:49:05;3.40;;;2.63;;
1811;SDS011;904;47.814;11.134;2023-05-07T07:51:32;3.43;;;2.70;;
1811;SDS011;904;47.814;11.134;2023-05-07T07:53:59;5.37;;;2.70;;
1811;SDS011;904;47.814;11.134;2023-05-07T07:56:27;6.30;;;3.30;;
1811;SDS011;904;47.814;11.134;2023-05-07T07:58:54;3.70;;;3.00;;
1811;SDS011;904;47.814;11.134;2023-05-07T08:01:23;3.00;;;2.50;;
1811;SDS011;904;47.814;11.134;2023-05-07T08:03:51;3.50;;;2.27;;
1811;SDS011;904;47.814;11.134;2023-05-07T08:06:18;4.10;;;2.63;;
1811;SDS011;904;47.814;11.134;2023-05-07T08:08:45;5.73;;;2.80;;
1811;SDS011;904;47.814;11.134;2023-05-07T08:11:12;4.73;;;2.53;;
1811;SDS011;904;47.814;11.134;2023-05-07T08:13:43;7.80;;;2.67;;
1811;SDS011;904;47.814;11.134;2023-05-07T08:16:10;7.10;;;2.50;;
1811;SDS011;904;47.814;11.134;2023-05-07T08:18:42;3.87;;;2.30;;
1811;SDS011;904;47.814;11.134;2023-05-07T08:21:09;5.17;;;2.70;;
1811;SDS011;904;47.814;11.134;2023-05-07T08:23:38;4.47;;;3.00;;
1811;SDS011;904;47.814;11.134;2023-05-07T08:26:07;3.47;;;2.40;;
1811;SDS011;904;47.814;11.134;2023-05-07T08:28:37;4.80;;;2.50;;
1811;SDS011;904;47.814;11.134;2023-05-07T08:31:05;3.00;;;2.23;;
1811;SDS011;904;47.814;11.134;2023-05-07T08:33:32;3.87;;;2.57;;
1811;SDS011;904;47.814;11.134;2023-05-07T08:36:00;3.63;;;2.13;;
1811;SDS011;904;47.814;11.134;2023-05-07T08:38:28;3.03;;;2.30;;
1811;SDS011;904;47.814;11.134;2023-05-07T08:40:55;3.77;;;2.77;;
1811;SDS011;904;47.814;11.134;2023-05-07T08:43:22;3.30;;;2.67;;
1811;SDS011;904;47.814;11.134;2023-05-07T08:45:58;6.30;;;2.30;;
1811;SDS011;904;47.814;11.134;2023-05-07T08:48:27;4.03;;;2.40;;
1811;SDS011;904;47.814;11.134;2023-05-07T08:50:57;3.57;;;2.00;;
1811;SDS011;904;47.814;11.134;2023-05-07T08:53:26;3.63;;;1.80;;
1811;SDS011;904;47.814;11.134;2023-05-07T08:55:54;3.63;;;2.60;;
1811;SDS011;904;47.814;11.134;2023-05-07T08:58:22;2.87;;;2.20;;
1811;SDS011;904;47.814;11.134;2023-05-07T09:00:49;3.13;;;2.20;;
1811;SDS011;904;47.814;11.134;2023-05-07T09:03:21;3.83;;;2.10;;
1811;SDS011;904;47.814;11.134;2023-05-07T09:05:48;3.40;;;2.23;;
1811;SDS011;904;47.814;11.134;2023-05-07T09:08:15;3.47;;;2.17;;
1811;SDS011;904;47.814;11.134;2023-05-07T09:10:44;3.70;;;2.20;;
1811;SDS011;904;47.814;11.134;2023-05-07T09:13:11;3.27;;;1.80;;
1811;SDS011;904;47.814;11.134;2023-05-07T09:15:40;3.37;;;1.80;;
1811;SDS011;904;47.814;11.134;2023-05-07T09:18:07;4.63;;;1.70;;
1811;SDS011;904;47.814;11.134;2023-05-07T09:20:36;3.20;;;1.90;;
1811;SDS011;904;47.814;11.134;2023-05-07T09:23:03;2.70;;;1.60;;
1811;SDS011;904;47.814;11.134;2023-05-07T09:25:30;3.43;;;1.90;;
1811;SDS011;904;47.814;11.134;2023-05-07T09:28:02;2.53;;;1.60;;
1811;SDS011;904;47.814;11.134;2023-05-07T09:30:30;2.73;;;1.80;;
1811;SDS011;904;47.814;11.134;2023-05-07T09:32:58;2.97;;;1.47;;
1811;SDS011;904;47.814;11.134;2023-05-07T09:35:26;2.40;;;1.53;;
1811;SDS011;904;47.814;11.134;2023-05-07T09:38:02;2.77;;;1.60;;
1811;SDS011;904;47.814;11.134;2023-05-07T09:40:30;7.07;;;1.83;;
1811;SDS011;904;47.814;11.134;2023-05-07T09:43:07;3.03;;;1.60;;
1811;SDS011;904;47.814;11.134;2023-05-07T09:45:37;2.97;;;1.87;;
1811;SDS011;904;47.814;11.134;2023-05-07T09:48:05;3.10;;;1.50;;
1811;SDS011;904;47.814;11.134;2023-05-07T09:50:35;9.77;;;1.70;;
1811;SDS011;904;47.814;11.134;2023-05-07T09:53:05;4.67;;;1.63;;
1811;SDS011;904;47.814;11.134;2023-05-07T09:55:36;2.30;;;1.37;;
1811;SDS011;904;47.814;11.134;2023-05-07T09:58:04;3.40;;;1.50;;
1811;SDS011;904;47.814;11.134;2023-05-07T10:00:34;2.67;;;1.57;;
1811;SDS011;904;47.814;11.134;2023-05-07T10:03:02;3.60;;;1.90;;
1811;SDS011;904;47.814;11.134;2023-05-07T10:05:30;2.93;;;1.80;;
1811;SDS011;904;47.814;11.134;2023-05-07T10:07:58;2.20;;;1.40;;
1811;SDS011;904;47.814;11.134;2023-05-07T10:10:27;3.73;;;1.70;;
1811;SDS011;904;47.814;11.134;2023-05-07T10:12:55;2.60;;;1.50;;
1811;SDS011;904;47.814;11.134;2023-05-07T10:15:23;2.23;;;1.40;;
1811;SDS011;904;47.814;11.134;2023-05-07T10:17:54;4.33;;;1.80;;
1811;SDS011;904;47.814;11.134;2023-05-07T10:20:21;3.60;;;1.53;;
1811;SDS011;904;47.814;11.134;2023-05-07T10:22:51;2.30;;;1.30;;
1811;SDS011;904;47.814;11.134;2023-05-07T10:25:21;2.97;;;1.80;;
1811;SDS011;904;47.814;11.134;2023-05-07T10:27:51;3.97;;;1.80;;
1811;SDS011;904;47.814;11.134;2023-05-07T10:30:22;3.00;;;2.07;;
1811;SDS011;904;47.814;11.134;2023-05-07T10:32:59;2.37;;;1.53;;
1811;SDS011;904;47.814;11.134;2023-05-07T10:35:31;2.57;;;1.80;;
1811;SDS011;904;47.814;11.134;2023-05-07T10:38:05;2.87;;;1.63;;
1811;SDS011;904;47.814;11.134;2023-05-07T10:40:33;3.70;;;2.17;;
1811;SDS011;904;47.814;11.134;2023-05-07T10:43:01;2.87;;;1.70;;
1811;SDS011;904;47.814;11.134;2023-05-07T10:45:31;3.07;;;1.77;;
1811;SDS011;904;47.814;11.134;2023-05-07T10:48:06;2.57;;;1.77;;
1811;SDS011;904;47.814;11.134;2023-05-07T10:50:35;3.30;;;1.87;;
1811;SDS011;904;47.814;11.134;2023-05-07T10:53:21;5.60;;;2.00;;
1811;SDS011;904;47.814;11.134;2023-05-07T10:58:54;5.03;;;1.57;;
1811;SDS011;904;47.814;11.134;2023-05-07T11:04:19;2.73;;;1.40;;
1811;SDS011;904;47.814;11.134;2023-05-07T11:09:59;3.77;;;1.80;;
1811;SDS011;904;47.814;11.134;2023-05-07T11:12:46;4.13;;;1.33;;
1811;SDS011;904;47.814;11.134;2023-05-07T11:15:38;2.30;;;1.20;;
1811;SDS011;904;47.814;11.134;2023-05-07T11:18:09;2.60;;;1.37;;
1811;SDS011;904;47.814;11.134;2023-05-07T11:20:49;2.60;;;1.57;;
1811;SDS011;904;47.814;11.134;2023-05-07T11:26:22;4.07;;;2.07;;
1811;SDS011;904;47.814;11.134;2023-05-07T11:28:50;2.80;;;1.47;;
1811;SDS011;904;47.814;11.134;2023-05-07T11:31:21;2.50;;;1.70;;
1811;SDS011;904;47.814;11.134;2023-05-07T11:33:51;2.67;;;1.40;;
1811;SDS011;904;47.814;11.134;2023-05-07T11:36:20;2.90;;;1.30;;
1811;SDS011;904;47.814;11.134;2023-05-07T11:38:53;2.93;;;1.37;;
1811;SDS011;904;47.814;11.134;2023-05-07T11:41:21;2.57;;;1.57;;
1811;SDS011;904;47.814;11.134;2023-05-07T11:43:54;2.27;;;1.67;;
1811;SDS011;904;47.814;11.134;2023-05-07T11:46:26;2.80;;;1.83;;
1811;SDS011;904;47.814;11.134;2023-05-07T11:48:57;3.50;;;1.60;;
1811;SDS011;904;47.814;11.134;2023-05-07T11:51:25;3.70;;;1.53;;
1811;SDS011;904;47.814;11.134;2023-05-07T11:53:53;3.70;;;1.87;;
1811;SDS011;904;47.814;11.134;2023-05-07T11:56:21;3.47;;;1.97;;
1811;SDS011;904;47.814;11.134;2023-05-07T11:58:49;2.90;;;1.73;;
1811;SDS011;904;47.814;11.134;2023-05-07T12:01:23;3.73;;;1.57;;
1811;SDS011;904;47.814;11.134;2023-05-07T12:03:50;2.93;;;1.60;;
1811;SDS011;904;47.814;11.134;2023-05-07T12:06:21;2.83;;;1.60;;
1811;SDS011;904;47.814;11.134;2023-05-07T12:08:57;2.33;;;1.43;;
1811;SDS011;904;47.814;11.134;2023-05-07T12:11:24;2.60;;;1.60;;
1811;SDS011;904;47.814;11.134;2023-05-07T12:13:52;2.70;;;1.70;;
1811;SDS011;904;47.814;11.134;2023-05-07T12:16:20;3.13;;;1.77;;
1811;SDS011;904;47.814;11.134;2023-05-07T12:18:49;3.40;;;1.67;;
1811;SDS011;904;47.814;11.134;2023-05-07T12:21:17;5.00;;;2.23;;
1811;SDS011;904;47.814;11.134;2023-05-07T12:23:45;3.63;;;1.47;;
1811;SDS011;904;47.814;11.134;2023-05-07T12:26:14;3.30;;;1.63;;
1811;SDS011;904;47.814;11.134;2023-05-07T12:28:46;3.70;;;1.70;;
1811;SDS011;904;47.814;11.134;2023-05-07T12:31:13;2.57;;;1.70;;
1811;SDS011;904;47.814;11.134;2023-05-07T12:33:41;2.80;;;1.67;;
1811;SDS011;904;47.814;11.134;2023-05-07T12:36:15;2.90;;;1.90;;
1811;SDS011;904;47.814;11.134;2023-05-07T12:38:43;4.30;;;1.60;;
1811;SDS011;904;47.814;11.134;2023-05-07T12:41:10;2.73;;;1.40;;
1811;SDS011;904;47.814;11.134;2023-05-07T12:43:39;3.73;;;1.77;;
1811;SDS011;904;47.814;11.134;2023-05-07T12:46:12;2.90;;;2.00;;
1811;SDS011;904;47.814;11.134;2023-05-07T12:48:43;3.37;;;1.90;;
1811;SDS011;904;47.814;11.134;2023-05-07T12:51:11;3.73;;;1.90;;
1811;SDS011;904;47.814;11.134;2023-05-07T12:53:40;5.23;;;2.10;;
1811;SDS011;904;47.814;11.134;2023-05-07T12:56:08;3.00;;;1.80;;
1811;SDS011;904;47.814;11.134;2023-05-07T12:58:35;4.40;;;1.70;;
1811;SDS011;904;47.814;11.134;2023-05-07T13:01:06;4.83;;;2.23;;
1811;SDS011;904;47.814;11.134;2023-05-07T13:03:35;5.57;;;1.70;;
1811;SDS011;904;47.814;11.134;2023-05-07T13:06:03;2.97;;;1.60;;
1811;SDS011;904;47.814;11.134;2023-05-07T13:08:32;2.93;;;1.70;;
1811;SDS011;904;47.814;11.134;2023-05-07T13:11:01;5.40;;;2.40;;
1811;SDS011;904;47.814;11.134;2023-05-07T13:13:30;5.03;;;2.60;;
1811;SDS011;904;47.814;11.134;2023-05-07T13:15:57;3.03;;;2.00;;
1811;SDS011;904;47.814;11.134;2023-05-07T13:18:27;3.23;;;1.83;;
1811;SDS011;904;47.814;11.134;2023-05-07T13:20:56;3.27;;;1.27;;
1811;SDS011;904;47.814;11.134;2023-05-07T13:23:23;4.70;;;1.60;;
1811;SDS011;904;47.814;11.134;2023-05-07T13:25:50;3.80;;;2.00;;
1811;SDS011;904;47.814;11.134;2023-05-07T13:28:19;3.17;;;1.40;;
1811;SDS011;904;47.814;11.134;2023-05-07T13:30:46;2.90;;;1.93;;
1811;SDS011;904;47.814;11.134;2023-05-07T13:33:13;5.20;;;1.40;;
1811;SDS011;904;47.814;11.134;2023-05-07T13:35:43;3.77;;;2.17;;
1811;SDS011;904;47.814;11.134;2023-05-07T13:38:11;3.70;;;2.10;;
1811;SDS011;904;47.814;11.134;2023-05-07T13:40:38;3.30;;;1.53;;
1811;SDS011;904;47.814;11.134;2023-05-07T13:43:05;3.33;;;1.50;;
1811;SDS011;904;47.814;11.134;2023-05-07T13:45:33;2.67;;;1.87;;
1811;SDS011;904;47.814;11.134;2023-05-07T13:48:00;4.20;;;1.97;;
1811;SDS011;904;47.814;11.134;2023-05-07T13:50:27;4.73;;;1.60;;
1811;SDS011;904;47.814;11.134;2023-05-07T13:52:56;3.77;;;2.20;;
1811;SDS011;904;47.814;11.134;2023-05-07T13:55:23;3.93;;;1.90;;
1811;SDS011;904;47.814;11.134;2023-05-07T13:57:54;4.90;;;2.00;;
1811;SDS011;904;47.814;11.134;2023-05-07T14:00:22;3.93;;;2.30;;
1811;SDS011;904;47.814;11.134;2023-05-07T14:02:49;4.23;;;2.07;;
1811;SDS011;904;47.814;11.134;2023-05-07T14:05:16;2.90;;;1.93;;
1811;SDS011;904;47.814;11.134;2023-05-07T14:07:44;3.27;;;2.13;;
1811;SDS011;904;47.814;11.134;2023-05-07T14:10:13;4.07;;;1.90;;
1811;SDS011;904;47.814;11.134;2023-05-07T14:12:40;3.97;;;2.00;;
1811;SDS011;904;47.814;11.134;2023-05-07T14:15:07;3.27;;;1.70;;
1811;SDS011;904;47.814;11.134;2023-05-07T14:17:35;5.63;;;1.90;;
1811;SDS011;904;47.814;11.134;2023-05-07T14:20:07;4.07;;;1.70;;
1811;SDS011;904;47.814;11.134;2023-05-07T14:22:35;3.10;;;2.17;;
1811;SDS011;904;47.814;11.134;2023-05-07T14:25:02;2.50;;;1.70;;
1811;SDS011;904;47.814;11.134;2023-05-07T14:27:31;4.50;;;1.80;;
1811;SDS011;904;47.814;11.134;2023-05-07T14:29:59;3.80;;;2.30;;
1811;SDS011;904;47.814;11.134;2023-05-07T14:32:27;2.80;;;1.77;;
1811;SDS011;904;47.814;11.134;2023-05-07T14:34:54;4.50;;;1.77;;
1811;SDS011;904;47.814;11.134;2023-05-07T14:37:21;4.60;;;2.23;;
1811;SDS011;904;47.814;11.134;2023-05-07T14:39:49;3.70;;;1.63;;
1811;SDS011;904;47.814;11.134;2023-05-07T14:42:16;5.20;;;2.03;;
1811;SDS011;904;47.814;11.134;2023-05-07T14:44:45;2.53;;;1.57;;
1811;SDS011;904;47.814;11.134;2023-05-07T14:47:13;3.40;;;1.80;;
1811;SDS011;904;47.814;11.134;2023-05-07T14:49:41;2.43;;;1.70;;
1811;SDS011;904;47.814;11.134;2023-05-07T14:52:08;3.97;;;1.77;;
1811;SDS011;904;47.814;11.134;2023-05-07T14:54:36;2.60;;;1.50;;
1811;SDS011;904;47.814;11.134;2023-05-07T14:57:04;3.17;;;1.80;;
1811;SDS011;904;47.814;11.134;2023-05-07T14:59:32;2.70;;;1.53;;
1811;SDS011;904;47.814;11.134;2023-05-07T15:02:01;6.03;;;2.47;;
1811;SDS011;904;47.814;11.134;2023-05-07T15:04:29;2.83;;;1.20;;
1811;SDS011;904;47.814;11.134;2023-05-07T15:06:56;2.77;;;1.80;;
1811;SDS011;904;47.814;11.134;2023-05-07T15:09:23;3.40;;;2.00;;
1811;SDS011;904;47.814;11.134;2023-05-07T15:11:52;2.80;;;1.53;;
1811;SDS011;904;47.814;11.134;2023-05-07T15:14:23;4.70;;;1.67;;
1811;SDS011;904;47.814;11.134;2023-05-07T15:16:50;2.00;;;0.97;;
1811;SDS011;904;47.814;11.134;2023-05-07T15:19:18;3.13;;;1.33;;
1811;SDS011;904;47.814;11.134;2023-05-07T15:21:47;2.97;;;1.30;;
1811;SDS011;904;47.814;11.134;2023-05-07T15:24:14;3.67;;;1.80;;
1811;SDS011;904;47.814;11.134;2023-05-07T15:26:41;3.90;;;1.30;;
1811;SDS011;904;47.814;11.134;2023-05-07T15:29:14;2.20;;;1.00;;
1811;SDS011;904;47.814;11.134;2023-05-07T15:31:41;3.37;;;0.97;;
1811;SDS011;904;47.814;11.134;2023-05-07T15:34:10;2.13;;;0.90;;
1811;SDS011;904;47.814;11.134;2023-05-07T15:36:39;1.70;;;0.70;;